KN4RPA Weather Reports


time (UTC)temp
C
wind
direction
speed
KPH
gust
KPH
rain 1hr
cm
rain 24hr
cm
rain mn
cm
humidity
%
barometer
mb
20240420171525 17 336 0.0 4.8 0.00 0.00 0.00 60 1013.7
20240420170024 17 336 0.0 6.4 0.00 0.00 0.00 59 1014.0
20240420164522 17 336 0.0 4.8 0.00 0.00 0.00 60 1014.4
20240420163020 17 336 0.0 3.2 0.00 0.00 0.00 61 1014.5
20240420161518 17 336 0.0 4.8 0.00 0.00 0.00 62 1014.7
20240420160017 17 336 0.0 3.2 0.00 0.00 0.00 63 1014.9
20240420154515 16 336 0.0 4.8 0.00 0.00 0.00 63 1014.9
20240420153019 16 336 0.0 6.4 0.00 0.00 0.00 63 1014.9
20240420151514 16 335 0.0 4.8 0.00 0.00 0.00 63 1015.0
20240420150011 16 333 1.6 6.4 0.00 0.00 0.00 66 1014.9
20240420144507 15 334 0.0 9.7 0.00 0.00 0.00 70 1015.0
20240420143004 15 304 0.0 6.4 0.00 0.00 0.00 76 1015.1
20240420141502 14 189 0.0 4.8 0.00 0.00 0.00 82 1014.8
20240420140104 14 187 0.0 4.8 0.00 0.00 0.00 85 1014.9
20240420134558 14 187 0.0 3.2 0.00 0.00 0.00 87 1014.8
20240420133056 13 187 0.0 1.6 0.00 0.00 0.00 87 1014.9
20240420131556 13 187 0.0 1.6 0.00 0.00 0.00 88 1014.8
20240420130104 13 187 0.0 0.0 0.00 0.00 0.00 88 1015.0
20240420124553 13 187 0.0 1.6 0.00 0.00 0.00 89 1014.7
20240420123108 13 187 0.0 0.0 0.00 0.00 0.00 89 1014.9
20240420121555 12 187 0.0 0.0 0.00 0.00 0.00 89 1015.4
20240420120056 12 187 0.0 0.0 0.00 0.00 0.00 89 1014.7
20240420114547 12 187 0.0 0.0 0.00 0.00 0.00 89 1014.9
20240420113053 12 187 0.0 0.0 0.00 0.00 0.00 89 1014.9
20240420111544 12 187 0.0 0.0 0.00 0.00 0.00 89 1014.7
20240420110043 12 187 0.0 3.2 0.00 0.00 0.00 89 1014.8
20240420104541 12 187 0.0 0.0 0.00 0.00 0.00 89 1014.8
20240420103053 12 186 0.0 1.6 0.00 0.00 0.00 89 1014.6
20240420101540 12 187 0.0 0.0 0.00 0.00 0.00 89 1014.4
20240420100047 12 187 0.0 0.0 0.00 0.00 0.00 88 1014.0
20240420094538 12 187 0.0 0.0 0.00 0.00 0.00 88 1013.9
20240420093038 12 187 0.0 0.0 0.00 0.00 0.00 88 1014.0
20240420091538 12 187 0.0 0.0 0.00 0.00 0.00 88 1014.0
20240420090046 12 187 0.0 0.0 0.00 0.00 0.00 88 1014.2
20240420084538 12 187 0.0 0.0 0.00 0.00 0.00 88 1014.1
20240420083035 12 187 0.0 0.0 0.00 0.00 0.00 87 1014.1
20240420081536 12 187 0.0 0.0 0.00 0.00 0.00 87 1014.1
20240420080033 12 186 0.0 0.0 0.00 0.00 0.00 87 1014.4
20240420074536 12 187 0.0 4.8 0.00 0.00 0.00 87 1014.3
20240420073045 12 187 0.0 1.6 0.00 0.00 0.00 87 1014.2
20240420071532 12 187 0.0 0.0 0.00 0.00 0.00 87 1014.0
20240420070029 12 187 0.0 1.6 0.00 0.00 0.00 86 1014.4
20240420064528 12 186 0.0 0.0 0.00 0.00 0.00 86 1014.5
20240420063028 12 187 0.0 0.0 0.00 0.00 0.00 86 1014.7
20240420061535 12 187 0.0 0.0 0.00 0.00 0.00 86 1014.7
20240420060025 12 187 0.0 4.8 0.00 0.00 0.00 86 1014.5
20240420054526 12 187 0.0 1.6 0.00 0.00 0.00 85 1014.7
20240420053023 12 187 0.0 3.2 0.00 0.00 0.00 85 1014.8
20240420051536 12 187 0.0 4.8 0.00 0.00 0.00 85 1015.1
20240420050028 12 187 0.0 4.8 0.00 0.00 0.00 85 1015.1
20240420044517 12 187 0.0 3.2 0.00 0.00 0.00 85 1015.2
20240420043016 12 187 0.0 3.2 0.00 0.00 0.00 85 1015.4
20240420041517 12 187 0.0 6.4 0.00 0.00 0.00 85 1015.4
20240420040012 12 187 0.0 4.8 0.00 0.00 0.00 85 1015.5
20240420034510 12 187 0.0 3.2 0.00 0.00 0.00 85 1015.6
20240420033010 12 187 0.0 1.6 0.00 0.00 0.00 85 1015.6
20240420031510 12 187 0.0 4.8 0.00 0.00 0.00 85 1015.4
20240420030013 12 187 0.0 3.2 0.00 0.00 0.00 85 1015.4
20240420024508 12 187 0.0 3.2 0.00 0.00 0.00 84 1015.6
20240420023008 12 187 0.0 0.0 0.00 0.00 0.00 84 1015.8
20240420021509 12 187 0.0 0.0 0.00 0.00 0.00 84 1015.5
20240420020007 13 187 0.0 0.0 0.00 0.00 0.00 84 1015.6
20240420014513 13 187 0.0 0.0 0.00 0.00 0.00 83 1016.0
20240420013007 13 187 0.0 0.0 0.00 0.00 0.00 83 1016.1
20240420011506 13 187 0.0 0.0 0.00 0.00 0.00 82 1015.8
20240420010006 13 187 0.0 0.0 0.00 0.00 0.00 82 1015.6
20240420004505 13 187 0.0 0.0 0.00 0.00 0.00 82 1015.6
20240420003005 13 187 0.0 0.0 0.00 0.00 0.00 82 1015.5
20240420001505 13 187 0.0 0.0 0.00 0.00 0.00 81 1015.3
20240420000004 13 187 0.0 1.6 0.00 0.00 0.00 81 1015.3
20240419234504 13 187 0.0 0.0 0.00 0.00 0.00 80 1015.2
20240419233005 13 187 0.0 0.0 0.00 0.00 0.00 80 1015.4
20240419231503 13 187 0.0 0.0 0.00 0.00 0.00 80 1015.3
20240419230002 13 187 0.0 0.0 0.00 0.00 0.00 80 1015.5
20240419224502 13 187 0.0 0.0 0.00 0.00 0.00 79 1015.3
20240419223003 13 187 0.0 3.2 0.00 0.00 0.00 79 1015.1
20240419221600 13 187 0.0 4.8 0.00 0.00 0.00 79 1015.0
20240419220100 13 187 0.0 1.6 0.00 0.00 0.00 80 1015.0
20240419214559 13 187 0.0 4.8 0.00 0.00 0.00 80 1014.8
20240419213057 13 187 0.0 6.4 0.00 0.00 0.00 80 1015.1
20240419211557 13 187 0.0 8.0 0.00 0.00 0.00 80 1015.1
20240419210056 13 187 0.0 4.8 0.00 0.00 0.00 80 1015.7
20240419204557 13 187 0.0 4.8 0.00 0.00 0.00 80 1015.5
20240419203100 13 159 0.0 9.7 0.00 0.00 0.00 81 1015.3
20240419201555 13 158 0.0 0.0 0.00 0.00 0.00 81 1015.2
20240419200053 12 158 0.0 3.2 0.00 0.00 0.00 82 1015.5
20240419194552 12 160 0.0 1.6 0.00 0.00 0.00 82 1015.7
20240419193050 12 160 0.0 1.6 0.00 0.00 0.00 82 1016.4
20240419191552 12 160 0.0 8.0 0.00 0.00 0.00 82 1016.4
20240419190049 12 160 0.0 1.6 0.00 0.00 0.00 82 1016.2
20240419184546 12 160 0.0 0.0 0.00 0.00 0.00 82 1016.7
20240419183044 12 160 0.0 0.0 0.00 0.00 0.00 82 1016.8
20240419181557 12 160 0.0 3.2 0.00 0.00 0.00 82 1016.9
20240419180043 12 160 0.0 0.0 0.00 0.00 0.00 82 1016.9
20240419174545 12 160 0.0 1.6 0.00 0.00 0.00 82 1017.0
20240419173042 12 160 0.0 1.6 0.00 0.00 0.00 82 1017.3